createdAt,value
2022-08-10T00:01:45.768Z,22.38
2022-08-10T00:04:21.116Z,22.35
2022-08-10T00:06:55.802Z,22.32
2022-08-10T00:09:28.141Z,22.27
2022-08-10T00:12:01.126Z,22.23
2022-08-10T00:14:34.328Z,22.16
2022-08-10T00:17:07.564Z,22.08
2022-08-10T00:20:04.022Z,22.03
2022-08-10T00:22:16.841Z,21.96
2022-08-10T00:24:50.047Z,21.90
2022-08-10T00:28:02.173Z,21.85
2022-08-10T00:29:58.110Z,21.83
2022-08-10T00:32:31.273Z,21.81
2022-08-10T00:35:04.423Z,21.82
2022-08-10T00:37:37.373Z,21.82
2022-08-10T00:40:12.039Z,21.82
2022-08-10T00:42:44.981Z,21.81
2022-08-10T00:45:17.908Z,21.76
2022-08-10T00:47:50.741Z,21.73
2022-08-10T00:50:23.551Z,21.70
2022-08-10T00:52:56.391Z,21.66
2022-08-10T00:55:29.467Z,21.64
2022-08-10T00:58:02.886Z,21.60
2022-08-10T01:00:35.870Z,21.57
2022-08-10T01:03:08.949Z,21.53
2022-08-10T01:05:51.738Z,21.48
2022-08-10T01:08:27.738Z,21.44
2022-08-10T01:12:39.279Z,21.41
2022-08-10T01:14:03.046Z,21.38
2022-08-10T01:16:43.648Z,21.36
2022-08-10T01:19:42.336Z,21.32
2022-08-10T01:22:25.364Z,21.28
2022-08-10T01:25:08.366Z,21.22
2022-08-10T01:28:17.613Z,21.20
2022-08-10T01:30:52.990Z,21.20
2022-08-10T01:33:31.640Z,21.20
2022-08-10T01:36:13.977Z,21.18
2022-08-10T01:38:50.069Z,21.16
2022-08-10T01:41:45.521Z,21.16
2022-08-10T01:44:14.863Z,21.15
2022-08-10T01:46:53.185Z,21.14
2022-08-10T01:49:27.076Z,21.14
2022-08-10T01:52:01.920Z,21.15
2022-08-10T01:54:35.110Z,21.14
2022-08-10T01:57:09.211Z,21.16
2022-08-10T01:59:58.641Z,21.17
2022-08-10T02:02:19.815Z,21.14
2022-08-10T02:04:53.697Z,21.09
2022-08-10T02:07:27.984Z,21.06
2022-08-10T02:10:04.805Z,21.04
2022-08-10T02:12:38.631Z,21.02
2022-08-10T02:15:16.522Z,21.00
2022-08-10T02:17:59.126Z,20.97
2022-08-10T02:20:39.214Z,20.96
2022-08-10T02:23:16.633Z,20.95
2022-08-10T02:25:50.372Z,20.91
2022-08-10T02:28:27.454Z,20.90
2022-08-10T02:31:11.408Z,20.87
2022-08-10T02:33:57.587Z,20.81
2022-08-10T02:36:21.476Z,20.77
2022-08-10T02:38:58.999Z,20.71
2022-08-10T02:45:15.615Z,20.71
2022-08-10T02:45:19.470Z,20.67
2022-08-10T02:47:50.927Z,20.64
2022-08-10T02:50:36.509Z,20.64
2022-08-10T02:53:55.206Z,20.64
2022-08-10T02:56:13.669Z,20.66
2022-08-10T02:59:00.145Z,20.67
2022-08-10T03:01:40.117Z,20.71
2022-08-10T03:04:55.137Z,20.73
2022-08-10T03:07:01.966Z,20.75
2022-08-10T03:09:36.806Z,20.78
2022-08-10T03:12:35.425Z,20.83
2022-08-10T03:14:46.221Z,20.85
2022-08-10T03:17:19.541Z,20.88
2022-08-10T03:20:33.824Z,20.91
2022-08-10T03:22:28.820Z,20.97
2022-08-10T03:25:03.793Z,21.02
2022-08-10T03:27:37.062Z,21.07
2022-08-10T03:30:29.800Z,21.10
2022-08-10T03:32:46.517Z,21.16
2022-08-10T03:35:19.507Z,21.23
2022-08-10T03:37:52.256Z,21.30
2022-08-10T03:40:44.725Z,21.38
2022-08-10T03:43:07.985Z,21.49
2022-08-10T03:45:49.430Z,21.67
2022-08-10T03:48:19.772Z,21.86
2022-08-10T03:50:53.604Z,22.04
2022-08-10T03:54:05.966Z,22.23
2022-08-10T03:56:29.943Z,22.46
2022-08-10T03:58:38.382Z,22.68
2022-08-10T04:01:11.624Z,22.91
2022-08-10T04:03:44.652Z,23.11
2022-08-10T04:06:17.814Z,23.27
2022-08-10T04:08:50.602Z,23.43
2022-08-10T04:11:23.812Z,23.60
2022-08-10T04:13:56.723Z,23.70
2022-08-10T04:16:29.555Z,23.73
2022-08-10T04:19:02.284Z,23.74
2022-08-10T04:21:39.768Z,23.72
2022-08-10T04:24:26.787Z,23.71
2022-08-10T04:26:51.913Z,23.70
2022-08-10T04:29:25.286Z,23.66
2022-08-10T04:31:58.184Z,23.65
2022-08-10T04:34:32.689Z,23.63
2022-08-10T04:37:09.202Z,23.61
2022-08-10T04:39:42.265Z,23.60
2022-08-10T04:42:15.434Z,23.59
2022-08-10T04:44:48.592Z,23.58
2022-08-10T04:47:57.725Z,23.57
2022-08-10T04:49:57.034Z,23.60
2022-08-10T04:52:28.991Z,23.63
2022-08-10T04:55:01.706Z,23.66
2022-08-10T04:57:34.865Z,23.68
2022-08-10T05:00:17.938Z,23.83
2022-08-10T05:02:46.954Z,23.83
2022-08-10T05:05:19.433Z,23.87
2022-08-10T05:07:54.155Z,24.02
2022-08-10T05:10:27.634Z,24.02
2022-08-10T05:13:00.636Z,24.19
2022-08-10T05:15:34.181Z,24.19
2022-08-10T05:18:11.205Z,24.27
2022-08-10T05:20:42.665Z,24.34
2022-08-10T05:23:16.570Z,24.44
2022-08-10T05:25:49.400Z,24.50
2022-08-10T05:28:23.571Z,24.56
2022-08-10T05:30:56.634Z,24.62
2022-08-10T05:33:29.422Z,24.69
2022-08-10T05:36:07.042Z,24.78
2022-08-10T05:38:51.895Z,24.84
2022-08-10T05:41:23.926Z,24.93
2022-08-10T05:43:58.153Z,25.03
2022-08-10T05:46:31.059Z,25.10
2022-08-10T05:49:04.299Z,25.20
2022-08-10T05:51:37.298Z,25.27
2022-08-10T05:54:11.936Z,25.34
2022-08-10T05:56:56.710Z,25.41
2022-08-10T06:00:34.921Z,25.48
2022-08-10T06:02:33.669Z,25.55
2022-08-10T06:04:38.958Z,25.61
2022-08-10T06:07:13.841Z,25.70
2022-08-10T06:09:59.138Z,25.79
2022-08-10T06:12:29.126Z,25.86
2022-08-10T06:15:05.257Z,25.93
2022-08-10T06:17:39.079Z,26.04
2022-08-10T06:20:12.943Z,26.14
2022-08-10T06:22:45.811Z,26.25
2022-08-10T06:26:08.169Z,26.38
2022-08-10T06:27:54.886Z,26.48
2022-08-10T06:30:28.482Z,26.58
2022-08-10T06:33:02.394Z,26.67
2022-08-10T06:35:37.122Z,26.79
2022-08-10T06:38:11.050Z,26.92
2022-08-10T06:40:45.111Z,27.04
2022-08-10T06:43:20.709Z,27.16
2022-08-10T06:46:06.893Z,27.26
2022-08-10T06:48:48.560Z,27.38
2022-08-10T06:51:32.206Z,27.48
2022-08-10T06:54:08.989Z,27.60
2022-08-10T06:57:01.722Z,27.71
2022-08-10T06:59:37.004Z,27.83
2022-08-10T07:02:17.195Z,27.95
2022-08-10T07:04:59.916Z,28.05
2022-08-10T07:07:36.928Z,28.13
2022-08-10T07:10:11.504Z,28.22
2022-08-10T07:12:44.930Z,28.34
2022-08-10T07:15:18.549Z,28.47
2022-08-10T07:17:54.698Z,28.59
2022-08-10T07:20:28.717Z,28.73
2022-08-10T07:23:55.718Z,28.80
2022-08-10T07:25:41.583Z,28.91
2022-08-10T07:28:16.057Z,28.96
2022-08-10T07:30:50.455Z,29.04
2022-08-10T07:33:24.722Z,29.17
2022-08-10T07:35:58.143Z,29.22
2022-08-10T07:38:32.938Z,29.27
2022-08-10T07:41:07.628Z,29.37
2022-08-10T07:43:41.701Z,29.44
2022-08-10T07:46:16.657Z,29.52
2022-08-10T07:48:54.854Z,29.57
2022-08-10T07:51:28.861Z,29.64
2022-08-10T07:54:06.257Z,29.72
2022-08-10T07:56:49.039Z,29.81
2022-08-10T07:59:22.241Z,29.87
2022-08-10T08:01:57.027Z,29.96
2022-08-10T08:04:31.290Z,30.05
2022-08-10T08:07:04.753Z,30.11
2022-08-10T08:09:38.901Z,30.16
2022-08-10T08:12:13.634Z,30.21
2022-08-10T08:14:47.244Z,30.27
2022-08-10T08:17:20.708Z,30.33
2022-08-10T08:19:57.862Z,30.43
2022-08-10T08:24:30.228Z,30.45
2022-08-10T08:25:12.531Z,30.51
2022-08-10T08:27:47.798Z,30.54
2022-08-10T08:30:26.746Z,30.59
2022-08-10T08:32:53.572Z,30.69
2022-08-10T08:35:26.927Z,30.77
2022-08-10T08:38:31.068Z,30.85
2022-08-10T08:40:39.546Z,30.91
2022-08-10T08:43:47.311Z,30.97
2022-08-10T08:46:59.105Z,31.04
2022-08-10T08:50:08.157Z,31.11
2022-08-10T08:52:49.237Z,31.17
2022-08-10T08:56:05.671Z,31.24
2022-08-10T08:59:05.274Z,31.28
2022-08-10T09:02:20.096Z,31.33
2022-08-10T09:05:18.574Z,31.41
2022-08-10T09:08:25.589Z,31.50
2022-08-10T09:11:04.713Z,31.54
2022-08-10T09:13:47.806Z,31.54
2022-08-10T09:16:28.084Z,31.54
2022-08-10T09:19:11.533Z,31.56
2022-08-10T09:22:09.942Z,31.59
2022-08-10T09:24:39.244Z,31.64
2022-08-10T09:27:25.357Z,31.71
2022-08-10T09:30:01.606Z,31.79
2022-08-10T09:36:13.564Z,31.87
2022-08-10T09:36:21.930Z,31.89
2022-08-10T09:38:33.635Z,31.86
2022-08-10T09:41:48.960Z,31.76
2022-08-10T09:44:57.958Z,31.64
2022-08-10T09:48:05.775Z,31.55
2022-08-10T09:53:49.315Z,31.51
2022-08-10T09:56:50.948Z,31.55
2022-08-10T10:00:00.411Z,31.59
2022-08-10T10:02:26.189Z,31.63
2022-08-10T10:05:21.105Z,31.61
2022-08-10T10:07:58.976Z,31.65
2022-08-10T10:10:48.453Z,31.69
2022-08-10T10:13:41.701Z,31.70
2022-08-10T10:16:26.336Z,31.69
2022-08-10T10:19:18.366Z,31.70
2022-08-10T10:22:12.518Z,31.73
2022-08-10T10:25:19.615Z,31.74
2022-08-10T10:27:52.537Z,31.81
2022-08-10T10:30:26.779Z,31.90
2022-08-10T10:33:14.374Z,31.90
2022-08-10T10:35:56.329Z,31.92
2022-08-10T10:38:36.259Z,31.96
2022-08-10T10:42:03.612Z,32.05
2022-08-10T10:44:55.760Z,32.19
2022-08-10T10:47:58.899Z,32.34
2022-08-10T10:50:42.331Z,32.33
2022-08-10T10:53:54.897Z,32.32
2022-08-10T10:57:00.500Z,32.30
2022-08-10T11:00:11.204Z,32.27
2022-08-10T11:03:01.212Z,32.24
2022-08-10T11:05:56.992Z,32.23
2022-08-10T11:08:34.654Z,32.23
2022-08-10T11:11:59.771Z,32.25
2022-08-10T11:14:24.850Z,32.25
2022-08-10T11:16:58.626Z,32.22
2022-08-10T11:20:01.843Z,32.17
2022-08-10T11:23:01.212Z,32.13
2022-08-10T11:25:43.852Z,32.11
2022-08-10T11:28:37.606Z,32.14
2022-08-10T11:31:27.607Z,32.26
2022-08-10T11:34:46.809Z,32.36
2022-08-10T11:37:13.284Z,32.38
2022-08-10T11:40:02.701Z,32.33
2022-08-10T11:42:51.835Z,32.25
2022-08-10T11:45:32.006Z,32.17
2022-08-10T11:48:54.259Z,32.04
2022-08-10T11:51:38.054Z,31.96
2022-08-10T11:54:27.320Z,31.87
2022-08-10T11:57:03.116Z,31.80
2022-08-10T11:59:58.293Z,31.76
2022-08-10T12:02:41.038Z,31.76
2022-08-10T12:05:53.068Z,31.83
2022-08-10T12:10:02.909Z,31.92
2022-08-10T12:10:45.400Z,32.03
2022-08-10T12:13:31.409Z,32.09
2022-08-10T12:16:15.513Z,32.12
2022-08-10T12:18:50.096Z,32.15
2022-08-10T12:21:33.219Z,32.21
2022-08-10T12:24:17.342Z,32.26
2022-08-10T12:27:03.389Z,32.32
2022-08-10T12:30:02.105Z,32.36
2022-08-10T12:32:48.326Z,32.41
2022-08-10T12:35:28.826Z,32.50
2022-08-10T12:38:25.401Z,32.63
2022-08-10T12:41:05.279Z,32.72
2022-08-10T12:44:06.742Z,32.75
2022-08-10T12:46:52.796Z,32.75
2022-08-10T12:49:38.612Z,32.73
2022-08-10T12:52:36.516Z,32.74
2022-08-10T12:55:10.478Z,32.77
2022-08-10T12:57:44.345Z,32.86
2022-08-10T13:00:17.921Z,32.90
2022-08-10T13:02:50.153Z,32.95
2022-08-10T13:05:23.039Z,32.99
2022-08-10T13:08:27.207Z,33.02
2022-08-10T13:10:59.567Z,33.04
2022-08-10T13:13:39.915Z,33.07
2022-08-10T13:16:12.825Z,33.08
2022-08-10T13:18:47.455Z,33.08
2022-08-10T13:21:21.326Z,33.04
2022-08-10T13:24:10.826Z,32.99
2022-08-10T13:27:24.921Z,32.95
2022-08-10T13:29:36.665Z,32.91
2022-08-10T13:32:11.457Z,32.89
2022-08-10T13:34:48.018Z,32.88
2022-08-10T13:37:27.803Z,32.85
2022-08-10T13:40:02.597Z,32.81
2022-08-10T13:42:38.745Z,32.89
2022-08-10T13:45:25.505Z,33.00
2022-08-10T13:48:18.930Z,33.13
2022-08-10T13:50:55.242Z,33.24
2022-08-10T13:53:33.209Z,33.35
2022-08-10T13:56:08.038Z,33.38
2022-08-10T13:58:42.897Z,33.41
2022-08-10T14:01:19.727Z,33.39
2022-08-10T14:03:53.843Z,33.36
2022-08-10T14:06:29.675Z,33.33
2022-08-10T14:09:09.059Z,33.33
2022-08-10T14:11:44.254Z,33.33
2022-08-10T14:14:21.900Z,33.31
2022-08-10T14:16:55.601Z,33.32
2022-08-10T14:19:33.144Z,33.33
2022-08-10T14:22:07.478Z,33.36
2022-08-10T14:24:40.254Z,33.40
2022-08-10T14:27:15.310Z,33.45
2022-08-10T14:29:52.576Z,33.50
2022-08-10T14:32:28.773Z,33.55
2022-08-10T14:36:18.894Z,33.57
2022-08-10T14:37:51.642Z,33.59
2022-08-10T14:40:25.799Z,33.60
2022-08-10T14:43:11.949Z,33.60
2022-08-10T14:45:48.520Z,33.54
2022-08-10T14:48:31.869Z,33.44
2022-08-10T14:51:00.472Z,33.28
2022-08-10T14:53:37.574Z,33.13
2022-08-10T14:56:14.444Z,32.97
2022-08-10T14:59:06.451Z,32.84
2022-08-10T15:02:00.312Z,32.69
2022-08-10T15:04:11.034Z,32.59
2022-08-10T15:06:57.513Z,32.52
2022-08-10T15:10:01.068Z,32.50
2022-08-10T15:12:27.228Z,32.49
2022-08-10T15:15:00.795Z,32.49
2022-08-10T15:17:39.811Z,32.49
2022-08-10T15:20:20.814Z,32.46
2022-08-10T15:23:02.478Z,32.43
2022-08-10T15:25:57.835Z,32.41
2022-08-10T15:28:23.662Z,32.38
2022-08-10T15:31:00.183Z,32.37
2022-08-10T15:34:04.960Z,32.38
2022-08-10T15:37:39.702Z,32.37
2022-08-10T15:40:20.728Z,32.35
2022-08-10T15:42:30.176Z,32.32
2022-08-10T15:45:03.349Z,32.25
2022-08-10T15:47:45.886Z,32.14
2022-08-10T15:50:40.118Z,32.03
2022-08-10T15:53:46.928Z,31.90
2022-08-10T15:56:16.371Z,31.79
2022-08-10T15:58:53.924Z,31.65
2022-08-10T16:02:13.027Z,31.55
2022-08-10T16:04:32.585Z,31.47
2022-08-10T16:07:12.677Z,31.38
2022-08-10T16:10:10.845Z,31.29
2022-08-10T16:12:59.944Z,31.22
2022-08-10T16:15:30.504Z,31.13
2022-08-10T16:18:15.847Z,31.02
2022-08-10T16:21:04.417Z,30.95
2022-08-10T16:23:41.825Z,30.88
2022-08-10T16:26:21.914Z,30.80
2022-08-10T16:29:05.507Z,30.71
2022-08-10T16:31:41.044Z,30.63
2022-08-10T16:34:16.545Z,30.54
2022-08-10T16:37:05.728Z,30.46
2022-08-10T16:39:58.529Z,30.39
2022-08-10T16:42:28.878Z,30.30
2022-08-10T16:45:14.906Z,30.23
2022-08-10T16:47:53.590Z,30.15
2022-08-10T16:50:34.050Z,30.07
2022-08-10T16:53:11.368Z,29.95
2022-08-10T16:55:55.191Z,29.86
2022-08-10T16:58:37.215Z,29.76
2022-08-10T17:01:16.753Z,29.63
2022-08-10T17:04:07.620Z,29.50
2022-08-10T17:06:36.638Z,29.38
2022-08-10T17:09:19.611Z,29.27
2022-08-10T17:11:55.481Z,29.16
2022-08-10T17:14:30.244Z,29.04
2022-08-10T17:17:09.713Z,28.96
2022-08-10T17:19:45.264Z,28.87
2022-08-10T17:22:23.831Z,28.78
2022-08-10T17:25:17.660Z,28.69
2022-08-10T17:28:04.276Z,28.62
2022-08-10T17:30:35.118Z,28.54
2022-08-10T17:33:13.906Z,28.48
2022-08-10T17:35:50.548Z,28.43
2022-08-10T17:38:26.277Z,28.34
2022-08-10T17:41:10.902Z,28.28
2022-08-10T17:43:58.223Z,28.21
2022-08-10T17:46:19.998Z,28.13
2022-08-10T17:48:54.828Z,28.05
2022-08-10T17:51:30.908Z,27.96
2022-08-10T17:54:03.935Z,27.89
2022-08-10T17:56:38.053Z,27.82
2022-08-10T17:59:17.482Z,27.77
2022-08-10T18:02:01.320Z,27.70
2022-08-10T18:04:27.389Z,27.66
2022-08-10T18:07:02.891Z,27.62
2022-08-10T18:09:46.869Z,27.58
2022-08-10T18:12:32.003Z,27.55
2022-08-10T18:15:00.717Z,27.51
2022-08-10T18:17:42.452Z,27.47
2022-08-10T18:20:20.100Z,27.42
2022-08-10T18:22:53.451Z,27.35
2022-08-10T18:25:30.662Z,27.30
2022-08-10T18:28:06.370Z,27.24
2022-08-10T18:30:48.341Z,27.18
2022-08-10T18:33:36.427Z,27.11
2022-08-10T18:36:11.481Z,27.04
2022-08-10T18:38:50.591Z,26.96
2022-08-10T18:41:37.423Z,26.91
2022-08-10T18:44:22.037Z,26.84
2022-08-10T18:47:00.954Z,26.78
2022-08-10T18:49:41.515Z,26.73
2022-08-10T18:52:16.117Z,26.69
2022-08-10T18:54:51.278Z,26.64
2022-08-10T18:57:31.758Z,26.60
2022-08-10T19:00:14.055Z,26.57
2022-08-10T19:03:25.824Z,26.53
2022-08-10T19:06:12.494Z,26.49
2022-08-10T19:09:46.756Z,26.43
2022-08-10T19:12:41.112Z,26.39
2022-08-10T19:15:36.351Z,26.34
2022-08-10T19:18:39.537Z,26.32
2022-08-10T19:21:34.581Z,26.29
2022-08-10T19:24:14.856Z,26.27
2022-08-10T19:26:52.337Z,26.25
2022-08-10T19:30:12.276Z,26.23
2022-08-10T19:32:52.038Z,26.23
2022-08-10T19:36:04.579Z,26.23
2022-08-10T19:38:55.645Z,26.24
2022-08-10T19:41:48.593Z,26.26
2022-08-10T19:44:33.197Z,26.26
2022-08-10T19:47:25.289Z,26.26
2022-08-10T19:50:21.017Z,26.25
2022-08-10T19:53:27.862Z,26.23
2022-08-10T19:56:33.523Z,26.20
2022-08-10T20:00:17.613Z,26.17
2022-08-10T20:01:57.896Z,26.13
2022-08-10T20:04:35.193Z,26.08
2022-08-10T20:07:15.562Z,26.04
2022-08-10T20:10:14.244Z,26.00
2022-08-10T20:12:57.275Z,25.95
2022-08-10T20:15:41.760Z,25.90
2022-08-10T20:18:26.527Z,25.87
2022-08-10T20:21:06.931Z,25.82
2022-08-10T20:23:55.196Z,25.78
2022-08-10T20:26:32.529Z,25.73
2022-08-10T20:29:25.061Z,25.69
2022-08-10T20:32:04.398Z,25.66
2022-08-10T20:34:51.789Z,25.62
2022-08-10T20:38:02.780Z,25.60
2022-08-10T20:40:39.439Z,25.57
2022-08-10T20:43:37.922Z,25.58
2022-08-10T20:46:34.822Z,25.57
2022-08-10T20:49:21.192Z,25.56
2022-08-10T20:52:03.054Z,25.54
2022-08-10T20:54:53.767Z,25.52
2022-08-10T20:58:01.814Z,25.49
2022-08-10T21:01:09.894Z,25.51
2022-08-10T21:04:02.995Z,25.50
2022-08-10T21:07:59.780Z,25.46
2022-08-10T21:10:51.639Z,25.44
2022-08-10T21:13:35.590Z,25.38
2022-08-10T21:16:33.714Z,25.34
2022-08-10T21:19:53.575Z,25.34
2022-08-10T21:22:24.061Z,25.34
2022-08-10T21:25:02.290Z,25.32
2022-08-10T21:27:55.255Z,25.28
2022-08-10T21:31:11.327Z,25.26
2022-08-10T21:34:14.831Z,25.22
2022-08-10T21:37:07.878Z,25.20
2022-08-10T21:40:34.555Z,25.18
2022-08-10T21:43:44.830Z,25.16
2022-08-10T21:47:05.215Z,25.12
2022-08-10T21:50:14.516Z,25.05
2022-08-10T21:53:16.908Z,24.99
2022-08-10T21:56:29.355Z,24.92
2022-08-10T21:59:42.670Z,24.87
2022-08-10T22:02:37.885Z,24.82
2022-08-10T22:05:38.966Z,24.79
2022-08-10T22:08:22.879Z,24.79
2022-08-10T22:11:16.806Z,24.77
2022-08-10T22:14:10.004Z,24.74
2022-08-10T22:17:59.678Z,24.70
2022-08-10T22:20:24.960Z,24.66
2022-08-10T22:23:51.827Z,24.60
2022-08-10T22:27:11.434Z,24.58
2022-08-10T22:30:06.504Z,24.54
2022-08-10T22:33:26.385Z,24.50
2022-08-10T22:36:39.651Z,24.48
2022-08-10T22:40:12.152Z,24.44
2022-08-10T22:43:11.102Z,24.38
2022-08-10T22:46:04.115Z,24.33
2022-08-10T22:49:02.278Z,24.34
2022-08-10T22:51:46.368Z,24.35
2022-08-10T22:55:10.589Z,24.36
2022-08-10T22:58:06.726Z,24.38
2022-08-10T23:00:39.802Z,24.38
2022-08-10T23:03:21.911Z,24.37
2022-08-10T23:06:07.210Z,24.34
2022-08-10T23:08:50.026Z,24.34
2022-08-10T23:11:30.329Z,24.33
2022-08-10T23:14:12.376Z,24.32
2022-08-10T23:17:07.741Z,24.29
2022-08-10T23:20:00.830Z,24.31
2022-08-10T23:22:43.427Z,24.31
2022-08-10T23:25:29.945Z,24.31
2022-08-10T23:28:00.813Z,24.34
2022-08-10T23:30:47.935Z,24.36
2022-08-10T23:33:17.158Z,24.35
2022-08-10T23:36:29.826Z,24.32
2022-08-10T23:38:33.860Z,24.30
2022-08-10T23:41:07.478Z,24.28
2022-08-10T23:44:03.419Z,24.26
2022-08-10T23:46:23.410Z,24.26
2022-08-10T23:48:59.413Z,24.27
2022-08-10T23:51:55.159Z,24.29
2022-08-10T23:54:19.104Z,24.31
2022-08-10T23:56:55.823Z,24.31
2022-08-10T23:59:29.099Z,24.32
